Time;durP1;ratioP1;P1;durP2;ratioP2;P2;SDS_P1;SDS_P2;PMS_P1;PMS_P2;Temp;Humidity;BMP_temperature;BMP_pressure;BME280_temperature;BME280_humidity;BME280_pressure;Samples;Min_cycle;Max_cycle;Signal;HPM_P1;HPM_P2
2023/01/07 00:01:16;;;;;;;13.95;8.57;;;;;;;;;;5152270;27;20414;-67
2023/01/07 00:03:42;;;;;;;14.18;8.18;;;;;;;;;;5153286;27;20023;-67
2023/01/07 00:06:10;;;;;;;13.00;8.07;;;;;;;;;;5155940;27;20019;-69
2023/01/07 00:08:38;;;;;;;12.38;7.88;;;;;;;;;;5173719;27;20032;-65
2023/01/07 00:11:05;;;;;;;12.52;7.28;;;;;;;;;;5173874;27;20025;-68
2023/01/07 00:13:32;;;;;;;11.63;7.72;;;;;;;;;;5153678;27;20023;-68
2023/01/07 00:15:58;;;;;;;10.48;7.30;;;;;;;;;;5152943;27;20079;-68
2023/01/07 00:18:24;;;;;;;11.32;7.07;;;;;;;;;;5153046;27;20390;-67
2023/01/07 00:20:49;;;;;;;11.32;7.25;;;;;;;;;;5151554;27;20015;-67
2023/01/07 00:23:15;;;;;;;11.75;7.40;;;;;;;;;;5152675;27;20439;-67
2023/01/07 00:25:40;;;;;;;11.80;7.53;;;;;;;;;;5152723;27;20030;-67
2023/01/07 00:28:06;;;;;;;13.57;8.02;;;;;;;;;;5152701;27;20033;-67
2023/01/07 00:30:31;;;;;;;13.30;7.32;;;;;;;;;;5152666;27;20117;-68
2023/01/07 00:35:27;;;;;;;14.52;7.97;;;;;;;;;;5152176;27;20163;-67
2023/01/07 00:37:53;;;;;;;11.85;7.70;;;;;;;;;;5152564;27;20047;-66
2023/01/07 00:40:19;;;;;;;13.88;7.38;;;;;;;;;;5152425;27;20397;-66
2023/01/07 00:42:56;;;;;;;11.73;7.75;;;;;;;;;;5152886;27;20079;-68
2023/01/07 00:45:23;;;;;;;12.75;7.45;;;;;;;;;;5150847;27;20117;-71
2023/01/07 00:47:52;;;;;;;12.85;7.38;;;;;;;;;;5152529;27;20023;-67
2023/01/07 00:50:23;;;;;;;14.00;7.90;;;;;;;;;;5165299;27;20037;-68
2023/01/07 00:52:48;;;;;;;12.45;8.00;;;;;;;;;;5170986;27;20011;-67
2023/01/07 00:55:13;;;;;;;11.10;7.22;;;;;;;;;;5154081;27;20026;-67
2023/01/07 00:57:40;;;;;;;13.45;7.55;;;;;;;;;;5152100;27;20075;-67
2023/01/07 01:00:07;;;;;;;12.88;7.22;;;;;;;;;;5152277;27;20063;-67
2023/01/07 01:02:33;;;;;;;11.13;6.75;;;;;;;;;;5152262;27;20071;-67
2023/01/07 01:04:58;;;;;;;10.95;7.45;;;;;;;;;;5150939;27;20106;-67
2023/01/07 01:07:23;;;;;;;11.88;7.55;;;;;;;;;;5152254;27;20086;-67
2023/01/07 01:09:49;;;;;;;12.38;7.22;;;;;;;;;;5152070;27;20027;-67
2023/01/07 01:12:14;;;;;;;11.88;7.72;;;;;;;;;;5151806;27;20022;-67
2023/01/07 01:14:40;;;;;;;11.73;7.95;;;;;;;;;;5151826;27;20050;-67
2023/01/07 01:17:06;;;;;;;11.45;7.60;;;;;;;;;;5151831;27;20367;-66
2023/01/07 01:19:31;;;;;;;12.57;7.53;;;;;;;;;;5151976;27;20696;-68
2023/01/07 01:21:56;;;;;;;11.52;7.30;;;;;;;;;;5152090;27;20015;-67
2023/01/07 01:24:22;;;;;;;12.35;7.50;;;;;;;;;;5151704;27;20438;-66
2023/01/07 01:26:47;;;;;;;12.63;8.25;;;;;;;;;;5151929;27;20018;-67
2023/01/07 01:29:12;;;;;;;14.18;7.40;;;;;;;;;;5151977;27;20044;-67
2023/01/07 01:31:38;;;;;;;11.98;7.60;;;;;;;;;;5151889;27;20535;-68
2023/01/07 01:34:03;;;;;;;12.02;7.85;;;;;;;;;;5151386;27;20019;-67
2023/01/07 01:36:29;;;;;;;12.75;8.20;;;;;;;;;;5150317;27;20027;-67
2023/01/07 01:38:55;;;;;;;13.30;8.15;;;;;;;;;;5151936;27;20034;-67
2023/01/07 01:41:21;;;;;;;13.13;7.95;;;;;;;;;;5151911;27;20512;-67
2023/01/07 01:43:46;;;;;;;12.90;8.23;;;;;;;;;;5151679;27;20109;-67
2023/01/07 01:46:18;;;;;;;11.77;7.63;;;;;;;;;;5151696;27;20517;-68
2023/01/07 01:48:50;;;;;;;12.00;8.10;;;;;;;;;;5151555;27;20027;-67
2023/01/07 01:51:20;;;;;;;11.20;7.45;;;;;;;;;;5151723;27;20474;-67
2023/01/07 01:53:46;;;;;;;12.38;7.85;;;;;;;;;;5151451;27;20022;-65
2023/01/07 01:56:15;;;;;;;12.50;7.05;;;;;;;;;;5151531;27;20401;-66
2023/01/07 01:58:46;;;;;;;11.27;7.55;;;;;;;;;;5151591;27;20027;-67
2023/01/07 02:01:12;;;;;;;11.05;7.32;;;;;;;;;;5151588;27;20037;-69
2023/01/07 02:03:37;;;;;;;10.85;7.18;;;;;;;;;;5151425;27;20031;-67
2023/01/07 02:06:03;;;;;;;9.82;6.90;;;;;;;;;;5151596;27;20421;-70
2023/01/07 02:08:29;;;;;;;11.73;7.72;;;;;;;;;;5152819;27;20394;-66
2023/01/07 02:11:19;;;;;;;10.95;6.93;;;;;;;;;;5155236;27;20030;-71
2023/01/07 02:14:10;;;;;;;10.55;6.93;;;;;;;;;;5154977;27;20030;-69
2023/01/07 02:16:38;;;;;;;13.55;7.07;;;;;;;;;;5155025;27;20163;-66
2023/01/07 02:19:22;;;;;;;13.05;7.13;;;;;;;;;;5155171;27;20091;-66
2023/01/07 02:22:10;;;;;;;12.70;6.55;;;;;;;;;;5155317;27;20034;-67
2023/01/07 02:24:54;;;;;;;9.95;6.57;;;;;;;;;;5154969;27;20031;-67
2023/01/07 02:27:35;;;;;;;10.20;6.70;;;;;;;;;;5155090;27;20051;-68
2023/01/07 02:30:26;;;;;;;9.30;6.20;;;;;;;;;;5154980;27;20033;-67
2023/01/07 02:33:07;;;;;;;9.57;6.28;;;;;;;;;;5154889;27;20023;-67
2023/01/07 02:35:44;;;;;;;9.57;6.40;;;;;;;;;;5154588;27;20087;-66
2023/01/07 02:38:27;;;;;;;10.93;5.72;;;;;;;;;;5154915;27;20106;-67
2023/01/07 02:41:31;;;;;;;8.02;5.57;;;;;;;;;;5154880;27;20140;-66
2023/01/07 02:44:05;;;;;;;9.88;5.80;;;;;;;;;;5154471;27;20695;-66
2023/01/07 02:47:06;;;;;;;8.52;5.72;;;;;;;;;;5154532;27;20072;-66
2023/01/07 02:49:33;;;;;;;9.00;5.65;;;;;;;;;;5154210;27;20363;-66
2023/01/07 02:52:16;;;;;;;10.00;5.90;;;;;;;;;;5154302;27;20045;-68
2023/01/07 02:54:43;;;;;;;8.30;5.57;;;;;;;;;;5154183;27;20026;-67
2023/01/07 02:57:44;;;;;;;9.35;5.90;;;;;;;;;;5154265;27;20056;-68
2023/01/07 03:00:10;;;;;;;8.00;5.40;;;;;;;;;;5154371;27;20022;-67
2023/01/07 03:02:54;;;;;;;9.63;6.03;;;;;;;;;;5154339;27;20106;-67
2023/01/07 03:05:40;;;;;;;12.00;5.20;;;;;;;;;;5154007;27;20030;-67
2023/01/07 03:08:32;;;;;;;10.20;4.97;;;;;;;;;;5154407;27;20101;-66
2023/01/07 03:11:00;;;;;;;8.45;5.75;;;;;;;;;;5154140;27;20019;-67
2023/01/07 03:13:37;;;;;;;10.15;6.20;;;;;;;;;;5154062;27;20015;-66
2023/01/07 03:16:17;;;;;;;11.65;5.68;;;;;;;;;;5153598;27;20033;-66
2023/01/07 03:18:49;;;;;;;10.68;5.32;;;;;;;;;;5154074;27;20139;-66
2023/01/07 03:21:16;;;;;;;11.07;5.90;;;;;;;;;;5153197;27;20029;-67
2023/01/07 03:23:48;;;;;;;7.57;5.55;;;;;;;;;;5152575;27;20692;-67
2023/01/07 03:26:19;;;;;;;12.45;5.80;;;;;;;;;;5152480;27;20105;-67
2023/01/07 03:28:45;;;;;;;8.75;5.95;;;;;;;;;;5153803;27;20427;-68
2023/01/07 03:31:13;;;;;;;8.70;5.78;;;;;;;;;;5154078;27;20026;-68
2023/01/07 03:33:53;;;;;;;8.10;5.45;;;;;;;;;;5153612;27;20057;-67
2023/01/07 03:36:24;;;;;;;10.60;6.30;;;;;;;;;;5153446;27;20068;-67
2023/01/07 03:38:49;;;;;;;;;;;;;;;;;;5154316;27;20071;-67
2023/01/07 03:42:38;;;;;;;8.75;5.03;;;;;;;;;;5153871;27;20289;-67
2023/01/07 03:44:01;;;;;;;7.60;4.93;;;;;;;;;;5153479;27;20027;-67
2023/01/07 03:46:27;;;;;;;9.73;5.10;;;;;;;;;;5153523;27;20437;-66
2023/01/07 03:48:52;;;;;;;7.47;5.13;;;;;;;;;;5153725;27;20018;-67
2023/01/07 03:51:17;;;;;;;8.65;5.03;;;;;;;;;;5153630;27;20435;-66
2023/01/07 03:53:43;;;;;;;8.80;4.90;;;;;;;;;;5153659;27;20019;-67
2023/01/07 03:56:08;;;;;;;8.38;5.35;;;;;;;;;;5158305;27;20034;-67
2023/01/07 03:58:34;;;;;;;10.18;4.90;;;;;;;;;;5165259;27;20019;-66
2023/01/07 04:00:59;;;;;;;10.35;4.97;;;;;;;;;;5161234;27;20432;-66
2023/01/07 04:03:24;;;;;;;7.28;4.78;;;;;;;;;;5152445;27;20055;-68
2023/01/07 04:05:50;;;;;;;8.48;5.10;;;;;;;;;;5153507;27;20015;-67
2023/01/07 04:08:15;;;;;;;7.07;4.55;;;;;;;;;;5153406;27;20023;-68
2023/01/07 04:10:40;;;;;;;8.73;4.60;;;;;;;;;;5153105;27;20079;-66
2023/01/07 04:13:06;;;;;;;6.35;4.47;;;;;;;;;;5152903;27;20034;-67
2023/01/07 04:15:31;;;;;;;7.25;4.68;;;;;;;;;;5152749;27;20538;-67
2023/01/07 04:17:57;;;;;;;7.35;4.70;;;;;;;;;;5152811;27;20054;-67
2023/01/07 04:20:22;;;;;;;7.82;4.90;;;;;;;;;;5152787;27;20025;-67
2023/01/07 04:22:47;;;;;;;7.47;4.82;;;;;;;;;;5152829;27;20374;-67
2023/01/07 04:25:13;;;;;;;7.47;4.70;;;;;;;;;;5152586;27;20038;-67
2023/01/07 04:27:38;;;;;;;8.55;4.60;;;;;;;;;;5152753;27;20079;-67
2023/01/07 04:30:04;;;;;;;6.38;4.43;;;;;;;;;;5152580;27;20023;-67
2023/01/07 04:32:29;;;;;;;6.38;3.95;;;;;;;;;;5151517;27;20023;-67
2023/01/07 04:34:55;;;;;;;6.05;3.97;;;;;;;;;;5152209;27;20025;-66
2023/01/07 04:37:20;;;;;;;6.75;3.72;;;;;;;;;;5152451;27;20027;-67
2023/01/07 04:39:46;;;;;;;6.22;3.63;;;;;;;;;;5152651;27;20072;-67
2023/01/07 04:42:11;;;;;;;6.35;3.83;;;;;;;;;;5152632;27;20021;-68
2023/01/07 04:44:36;;;;;;;4.97;3.50;;;;;;;;;;5152262;27;20038;-67
2023/01/07 04:47:02;;;;;;;5.30;3.40;;;;;;;;;;5152343;27;20030;-67
2023/01/07 04:49:27;;;;;;;5.00;3.30;;;;;;;;;;5152156;27;20027;-68
2023/01/07 04:51:52;;;;;;;5.88;3.38;;;;;;;;;;5152254;27;20151;-67
2023/01/07 04:54:18;;;;;;;5.88;3.80;;;;;;;;;;5152207;27;20491;-66
2023/01/07 04:56:43;;;;;;;6.93;3.83;;;;;;;;;;5151966;27;20030;-66
2023/01/07 04:59:09;;;;;;;6.43;4.00;;;;;;;;;;5152331;27;20030;-66
2023/01/07 05:01:34;;;;;;;4.57;3.58;;;;;;;;;;5152254;27;20156;-67
2023/01/07 05:04:00;;;;;;;5.85;3.47;;;;;;;;;;5152215;27;20498;-66
2023/01/07 05:06:25;;;;;;;6.35;3.42;;;;;;;;;;5152040;27;20128;-67
2023/01/07 05:08:50;;;;;;;6.43;3.67;;;;;;;;;;5151990;27;20431;-66
2023/01/07 05:11:20;;;;;;;7.00;3.47;;;;;;;;;;5151872;27;20035;-68
2023/01/07 05:13:47;;;;;;;5.97;3.80;;;;;;;;;;5152064;27;20025;-67
2023/01/07 05:16:12;;;;;;;6.40;3.55;;;;;;;;;;5151620;27;20022;-66
2023/01/07 05:18:38;;;;;;;6.47;4.00;;;;;;;;;;5152139;27;20027;-68
2023/01/07 05:21:04;;;;;;;5.32;3.70;;;;;;;;;;5152003;27;20068;-69
2023/01/07 05:23:29;;;;;;;7.45;3.70;;;;;;;;;;5151982;27;20057;-65
2023/01/07 05:25:54;;;;;;;6.82;3.50;;;;;;;;;;5151847;27;20030;-71
2023/01/07 05:28:20;;;;;;;5.78;3.45;;;;;;;;;;5150558;27;20294;-67
2023/01/07 05:30:46;;;;;;;6.07;3.80;;;;;;;;;;5151760;27;20484;-68
2023/01/07 05:33:11;;;;;;;6.13;3.40;;;;;;;;;;5151666;27;20027;-67
2023/01/07 05:35:37;;;;;;;6.18;3.83;;;;;;;;;;5151694;27;20634;-68
2023/01/07 05:38:02;;;;;;;5.45;3.33;;;;;;;;;;5151936;27;20050;-68
2023/01/07 05:40:28;;;;;;;6.75;3.85;;;;;;;;;;5151842;27;20023;-67
2023/01/07 05:42:53;;;;;;;6.38;3.78;;;;;;;;;;5152311;27;20030;-69
2023/01/07 05:45:20;;;;;;;5.32;3.40;;;;;;;;;;5154294;27;20410;-67
2023/01/07 05:47:46;;;;;;;5.75;3.50;;;;;;;;;;5155767;27;20027;-67
2023/01/07 05:50:12;;;;;;;7.43;3.20;;;;;;;;;;5155707;27;20101;-71
2023/01/07 05:52:37;;;;;;;5.88;3.60;;;;;;;;;;5155618;27;20046;-67
2023/01/07 05:55:04;;;;;;;5.78;3.40;;;;;;;;;;5155527;27;20383;-66
2023/01/07 05:57:30;;;;;;;6.10;3.30;;;;;;;;;;5155468;27;20023;-68
2023/01/07 05:59:55;;;;;;;8.80;3.90;;;;;;;;;;5155920;27;20038;-74
2023/01/07 06:02:21;;;;;;;6.78;3.90;;;;;;;;;;5155581;27;20026;-67
2023/01/07 06:04:46;;;;;;;8.70;4.38;;;;;;;;;;5155502;27;20117;-66
2023/01/07 06:07:12;;;;;;;6.78;3.90;;;;;;;;;;5155179;27;20026;-68
2023/01/07 06:09:37;;;;;;;6.30;3.65;;;;;;;;;;5155513;27;20034;-67
2023/01/07 06:12:02;;;;;;;7.75;4.03;;;;;;;;;;5155151;27;20031;-71
2023/01/07 06:14:28;;;;;;;8.63;3.90;;;;;;;;;;5155239;27;20022;-67
2023/01/07 06:16:53;;;;;;;7.72;4.07;;;;;;;;;;5154909;27;20038;-67
2023/01/07 06:19:19;;;;;;;8.80;4.45;;;;;;;;;;5155123;27;20075;-67
2023/01/07 06:21:44;;;;;;;8.23;4.40;;;;;;;;;;5155161;27;20057;-67
2023/01/07 06:24:10;;;;;;;8.18;4.65;;;;;;;;;;5155262;27;20455;-67
2023/01/07 06:26:35;;;;;;;7.22;4.72;;;;;;;;;;5154798;27;20041;-67
2023/01/07 06:29:01;;;;;;;8.63;5.07;;;;;;;;;;5155071;27;20383;-67
2023/01/07 06:31:26;;;;;;;7.25;4.95;;;;;;;;;;5154777;27;20027;-68
2023/01/07 06:33:51;;;;;;;8.05;4.85;;;;;;;;;;5154715;27;20026;-68
2023/01/07 06:36:17;;;;;;;8.88;5.15;;;;;;;;;;5154553;27;20633;-68
2023/01/07 06:38:42;;;;;;;8.50;5.35;;;;;;;;;;5154978;27;20393;-67
2023/01/07 06:41:08;;;;;;;8.25;4.82;;;;;;;;;;5154862;27;20073;-67
2023/01/07 06:43:33;;;;;;;7.72;5.18;;;;;;;;;;5154846;27;20490;-65
2023/01/07 06:45:58;;;;;;;9.25;5.20;;;;;;;;;;5154322;27;20051;-68
2023/01/07 06:48:24;;;;;;;7.82;5.28;;;;;;;;;;5154535;27;20026;-66
2023/01/07 06:50:50;;;;;;;8.75;5.50;;;;;;;;;;5154349;27;20103;-67
2023/01/07 06:53:15;;;;;;;8.98;5.30;;;;;;;;;;5154499;27;20019;-67
2023/01/07 06:55:47;;;;;;;7.82;4.97;;;;;;;;;;5153282;27;20022;-68
2023/01/07 06:58:12;;;;;;;8.27;5.10;;;;;;;;;;5154348;27;20021;-68
2023/01/07 07:00:37;;;;;;;9.07;5.57;;;;;;;;;;5154646;27;20018;-67
2023/01/07 07:03:03;;;;;;;9.57;5.90;;;;;;;;;;5154469;27;20027;-69
2023/01/07 07:05:28;;;;;;;7.97;5.10;;;;;;;;;;5154057;27;20041;-67
2023/01/07 07:07:53;;;;;;;8.32;5.25;;;;;;;;;;5154070;27;20022;-67
2023/01/07 07:10:19;;;;;;;11.70;5.60;;;;;;;;;;5154138;27;20022;-67
2023/01/07 07:12:44;;;;;;;10.30;5.30;;;;;;;;;;5154447;27;20026;-68
2023/01/07 07:15:10;;;;;;;8.10;5.53;;;;;;;;;;5154061;27;20514;-67
2023/01/07 07:17:36;;;;;;;9.52;5.57;;;;;;;;;;5153564;27;20117;-68
2023/01/07 07:20:01;;;;;;;10.70;5.28;;;;;;;;;;5154005;27;20129;-66
2023/01/07 07:22:27;;;;;;;9.85;5.72;;;;;;;;;;5152693;27;20105;-66
2023/01/07 07:24:52;;;;;;;9.75;5.57;;;;;;;;;;5154144;27;20114;-65
2023/01/07 07:27:17;;;;;;;10.02;6.13;;;;;;;;;;5153616;27;20470;-67
2023/01/07 07:29:43;;;;;;;9.05;5.93;;;;;;;;;;5153764;27;20022;-67
2023/01/07 07:32:08;;;;;;;10.10;5.88;;;;;;;;;;5153674;27;20595;-66
2023/01/07 07:34:34;;;;;;;9.15;6.15;;;;;;;;;;5153553;27;20019;-67
2023/01/07 07:36:59;;;;;;;9.32;5.78;;;;;;;;;;5153572;27;20037;-67
2023/01/07 07:39:25;;;;;;;10.00;6.07;;;;;;;;;;5153953;27;20046;-67
2023/01/07 07:41:50;;;;;;;10.30;6.18;;;;;;;;;;5153762;27;20031;-66
2023/01/07 07:44:16;;;;;;;9.82;5.57;;;;;;;;;;5153707;27;20648;-67
2023/01/07 07:46:41;;;;;;;10.32;5.65;;;;;;;;;;5153405;27;20432;-66
2023/01/07 07:49:06;;;;;;;11.80;5.53;;;;;;;;;;5153506;27;20027;-67
2023/01/07 07:51:32;;;;;;;10.43;6.07;;;;;;;;;;5157629;27;20658;-67
2023/01/07 07:53:57;;;;;;;12.43;5.97;;;;;;;;;;5157139;27;20079;-66
2023/01/07 07:56:23;;;;;;;11.82;5.90;;;;;;;;;;5163319;27;20037;-67
2023/01/07 07:58:48;;;;;;;11.52;6.22;;;;;;;;;;5157278;27;20470;-67
2023/01/07 08:01:14;;;;;;;10.65;5.95;;;;;;;;;;5153386;27;20030;-68
2023/01/07 08:03:39;;;;;;;12.30;6.80;;;;;;;;;;5153622;27;20023;-67
2023/01/07 08:06:05;;;;;;;9.00;6.00;;;;;;;;;;5152880;27;20363;-74
2023/01/07 08:08:31;;;;;;;11.07;6.45;;;;;;;;;;5153403;27;20030;-71
2023/01/07 08:10:57;;;;;;;10.55;6.63;;;;;;;;;;5153088;27;20027;-67
2023/01/07 08:13:22;;;;;;;11.38;6.75;;;;;;;;;;5153004;27;20019;-67
2023/01/07 08:15:47;;;;;;;12.48;7.10;;;;;;;;;;5152850;27;20474;-67
2023/01/07 08:18:13;;;;;;;12.77;7.18;;;;;;;;;;5152419;27;20026;-67
2023/01/07 08:20:39;;;;;;;11.18;6.80;;;;;;;;;;5152922;27;20026;-67
2023/01/07 08:23:05;;;;;;;10.52;6.88;;;;;;;;;;5152969;27;20060;-67
2023/01/07 08:25:32;;;;;;;9.00;5.93;;;;;;;;;;5152941;27;20054;-67
2023/01/07 08:27:58;;;;;;;10.80;6.80;;;;;;;;;;5152280;27;20023;-67
2023/01/07 08:30:25;;;;;;;11.65;6.15;;;;;;;;;;5152582;27;20543;-67
2023/01/07 08:32:50;;;;;;;11.00;6.63;;;;;;;;;;5152468;27;20048;-67
2023/01/07 08:35:16;;;;;;;12.57;6.03;;;;;;;;;;5152406;27;20019;-66
2023/01/07 08:37:42;;;;;;;12.48;6.60;;;;;;;;;;5152357;27;20105;-68
2023/01/07 08:40:08;;;;;;;11.00;6.00;;;;;;;;;;5152741;27;20030;-66
2023/01/07 08:42:34;;;;;;;10.70;6.00;;;;;;;;;;5152505;27;20433;-66
2023/01/07 08:44:59;;;;;;;11.90;6.35;;;;;;;;;;5152477;27;20039;-68
2023/01/07 08:47:28;;;;;;;10.07;6.30;;;;;;;;;;5151971;27;20041;-67
2023/01/07 08:49:53;;;;;;;10.20;6.25;;;;;;;;;;5150733;27;20038;-67
2023/01/07 08:52:20;;;;;;;13.10;6.38;;;;;;;;;;5150727;27;20131;-67
2023/01/07 08:54:46;;;;;;;12.57;6.38;;;;;;;;;;5152407;27;20106;-67
2023/01/07 08:57:12;;;;;;;10.63;6.70;;;;;;;;;;5151987;27;20482;-67
2023/01/07 08:59:39;;;;;;;13.82;7.07;;;;;;;;;;5152325;27;20114;-68
2023/01/07 09:02:09;;;;;;;11.63;6.40;;;;;;;;;;5152532;27;20027;-76
2023/01/07 09:04:34;;;;;;;13.73;6.72;;;;;;;;;;5152192;27;20026;-75
2023/01/07 09:07:00;;;;;;;10.55;6.95;;;;;;;;;;5151886;27;20095;-74
2023/01/07 09:09:25;;;;;;;12.77;7.45;;;;;;;;;;5152170;27;20027;-74
2023/01/07 09:11:50;;;;;;;12.32;7.20;;;;;;;;;;5152183;27;20030;-73
2023/01/07 09:14:16;;;;;;;12.90;6.90;;;;;;;;;;5152098;27;20025;-68
2023/01/07 09:16:41;;;;;;;10.88;6.60;;;;;;;;;;5151865;27;20485;-73
2023/01/07 09:19:07;;;;;;;12.48;6.72;;;;;;;;;;5154475;27;20023;-72
2023/01/07 09:21:32;;;;;;;11.95;6.93;;;;;;;;;;5162726;27;20023;-69
2023/01/07 09:23:57;;;;;;;11.30;7.05;;;;;;;;;;5161965;27;20105;-69
2023/01/07 09:26:23;;;;;;;12.43;6.18;;;;;;;;;;5158391;27;20027;-68
2023/01/07 09:28:48;;;;;;;10.65;6.65;;;;;;;;;;5156324;27;20500;-66
2023/01/07 09:31:13;;;;;;;11.57;6.75;;;;;;;;;;5156124;27;20015;-67
2023/01/07 09:33:39;;;;;;;10.65;6.57;;;;;;;;;;5156114;27;20713;-67
2023/01/07 09:36:05;;;;;;;13.77;7.03;;;;;;;;;;5156006;27;20030;-66
2023/01/07 09:38:31;;;;;;;14.15;6.70;;;;;;;;;;5155842;27;20030;-76
2023/01/07 09:40:57;;;;;;;12.43;6.28;;;;;;;;;;5156209;27;20054;-72
2023/01/07 09:43:39;;;;;;;11.23;6.68;;;;;;;;;;5156049;27;20066;-73
2023/01/07 09:46:07;;;;;;;8.88;6.20;;;;;;;;;;5155682;27;20046;-67
2023/01/07 09:48:38;;;;;;;12.38;6.35;;;;;;;;;;5155371;27;20027;-67
2023/01/07 09:51:03;;;;;;;;;;;;;;;;;;5156247;27;20034;-66
2023/01/07 09:53:36;;;;;;;12.50;5.78;;;;;;;;;;5155666;27;20286;-67
2023/01/07 09:56:05;;;;;;;12.40;5.78;;;;;;;;;;5155867;27;20041;-67
2023/01/07 09:58:30;;;;;;;13.07;6.05;;;;;;;;;;5155276;27;20027;-67
2023/01/07 10:00:56;;;;;;;10.05;5.95;;;;;;;;;;5155739;27;20091;-67
2023/01/07 10:03:27;;;;;;;14.93;6.30;;;;;;;;;;5155632;27;20038;-67
2023/01/07 10:06:15;;;;;;;10.80;6.25;;;;;;;;;;5155536;27;20039;-66
2023/01/07 10:09:10;;;;;;;12.23;6.20;;;;;;;;;;5155043;27;20105;-66
2023/01/07 10:11:35;;;;;;;10.20;6.10;;;;;;;;;;5155243;27;20557;-67
2023/01/07 10:14:24;;;;;;;8.68;5.70;;;;;;;;;;5155350;27;20018;-69
2023/01/07 10:17:01;;;;;;;10.98;6.03;;;;;;;;;;5155172;27;20027;-67
2023/01/07 10:19:42;;;;;;;10.48;5.93;;;;;;;;;;5155160;27;20105;-68
2023/01/07 10:22:33;;;;;;;9.43;5.47;;;;;;;;;;5155320;27;20026;-67
2023/01/07 10:25:21;;;;;;;11.02;6.00;;;;;;;;;;5155171;27;20049;-68
2023/01/07 10:27:52;;;;;;;11.68;6.22;;;;;;;;;;5154782;27;20113;-67
2023/01/07 10:30:18;;;;;;;;;;;;;;;;;;5155226;27;20027;-67
2023/01/07 10:32:47;;;;;;;8.85;5.18;;;;;;;;;;5155117;27;20267;-67
2023/01/07 10:35:17;;;;;;;9.43;5.30;;;;;;;;;;5154808;27;20034;-67
2023/01/07 10:37:43;;;;;;;11.48;4.95;;;;;;;;;;5154610;27;20050;-68
2023/01/07 10:40:22;;;;;;;8.80;4.80;;;;;;;;;;5155266;27;20076;-69
2023/01/07 10:43:14;;;;;;;8.27;4.93;;;;;;;;;;5154900;27;20038;-68
2023/01/07 10:46:08;;;;;;;8.85;4.55;;;;;;;;;;5154493;27;20047;-68
2023/01/07 10:48:40;;;;;;;8.57;4.55;;;;;;;;;;5138161;27;20035;-67
2023/01/07 10:51:10;;;;;;;7.65;4.40;;;;;;;;;;5154690;27;20050;-69
2023/01/07 10:54:00;;;;;;;9.63;4.82;;;;;;;;;;5154639;27;20022;-66
2023/01/07 10:56:36;;;;;;;7.87;4.50;;;;;;;;;;5154661;27;20403;-67
2023/01/07 10:59:02;;;;;;;7.93;4.72;;;;;;;;;;5154330;27;20023;-67
2023/01/07 11:01:34;;;;;;;6.95;4.30;;;;;;;;;;5153188;27;20029;-67
2023/01/07 11:04:00;;;;;;;7.43;3.95;;;;;;;;;;5154226;27;20018;-67
2023/01/07 11:06:46;;;;;;;8.75;4.00;;;;;;;;;;5154305;27;20026;-67
2023/01/07 11:09:34;;;;;;;9.25;4.03;;;;;;;;;;5153821;27;20118;-68
2023/01/07 11:12:26;;;;;;;10.15;4.07;;;;;;;;;;5143193;27;20042;-67
2023/01/07 11:14:55;;;;;;;8.05;4.05;;;;;;;;;;5153935;27;20096;-68
2023/01/07 11:17:30;;;;;;;9.63;3.80;;;;;;;;;;5153704;27;20126;-67
2023/01/07 11:19:55;;;;;;;7.05;3.72;;;;;;;;;;5153684;27;20125;-67
2023/01/07 11:22:28;;;;;;;8.40;3.80;;;;;;;;;;5153669;27;20102;-68
2023/01/07 11:24:58;;;;;;;8.43;3.85;;;;;;;;;;5153634;27;20034;-67
2023/01/07 11:27:27;;;;;;;11.40;4.03;;;;;;;;;;5153471;27;20073;-67
2023/01/07 11:29:58;;;;;;;7.10;3.70;;;;;;;;;;5153447;27;20027;-66
2023/01/07 11:32:27;;;;;;;8.07;3.70;;;;;;;;;;5153691;27;20397;-67
2023/01/07 11:34:55;;;;;;;8.00;3.45;;;;;;;;;;5153480;27;20031;-67
2023/01/07 11:37:38;;;;;;;8.32;3.75;;;;;;;;;;5153389;27;20478;-67
2023/01/07 11:40:28;;;;;;;8.27;3.22;;;;;;;;;;5153521;27;20026;-67
2023/01/07 11:42:58;;;;;;;6.50;3.23;;;;;;;;;;5153459;27;20030;-67
2023/01/07 11:45:29;;;;;;;6.10;3.63;;;;;;;;;;5153358;27;20367;-67
2023/01/07 11:48:04;;;;;;;8.25;3.60;;;;;;;;;;5159385;27;20038;-67
2023/01/07 11:50:40;;;;;;;8.13;3.40;;;;;;;;;;5173243;27;20023;-67
2023/01/07 11:53:31;;;;;;;7.45;3.63;;;;;;;;;;5154535;27;20019;-67
2023/01/07 11:55:59;;;;;;;6.05;3.17;;;;;;;;;;5153352;27;20501;-67
2023/01/07 11:58:30;;;;;;;7.20;3.40;;;;;;;;;;5153448;27;20105;-72
2023/01/07 12:01:07;;;;;;;;;;;;;;;;;;5153638;27;20019;-67
2023/01/07 12:03:42;;;;;;;6.60;3.67;;;;;;;;;;5152951;27;19918;-68
2023/01/07 12:06:10;;;;;;;9.40;3.70;;;;;;;;;;5152983;27;20069;-71
2023/01/07 12:08:39;;;;;;;6.50;3.38;;;;;;;;;;5152773;27;20414;-69
2023/01/07 12:11:10;;;;;;;6.78;3.35;;;;;;;;;;5151666;27;20085;-67
2023/01/07 12:13:39;;;;;;;9.10;3.60;;;;;;;;;;5151474;27;20023;-67
2023/01/07 12:16:07;;;;;;;5.13;3.30;;;;;;;;;;5152975;27;20027;-67
2023/01/07 12:18:41;;;;;;;5.72;3.40;;;;;;;;;;5152573;27;20026;-67
2023/01/07 12:21:29;;;;;;;8.88;3.05;;;;;;;;;;5152998;27;20022;-68
2023/01/07 12:24:24;;;;;;;6.68;3.35;;;;;;;;;;5152735;27;20033;-67
2023/01/07 12:27:27;;;;;;;6.88;3.20;;;;;;;;;;5152617;27;20027;-68
2023/01/07 12:30:05;;;;;;;10.85;3.60;;;;;;;;;;5152327;27;20076;-67
2023/01/07 12:33:05;;;;;;;6.68;3.13;;;;;;;;;;5152695;27;20076;-68
2023/01/07 12:35:37;;;;;;;9.20;3.10;;;;;;;;;;5152629;27;20019;-67
2023/01/07 12:38:10;;;;;;;5.85;3.00;;;;;;;;;;5152445;27;20395;-66
2023/01/07 12:40:45;;;;;;;4.70;2.80;;;;;;;;;;5152473;27;20043;-67
2023/01/07 12:43:13;;;;;;;7.10;2.88;;;;;;;;;;5152564;27;20423;-66
2023/01/07 12:45:49;;;;;;;8.48;3.22;;;;;;;;;;5152284;27;20034;-67
2023/01/07 12:48:41;;;;;;;6.47;2.67;;;;;;;;;;5151950;27;20386;-70
2023/01/07 12:51:17;;;;;;;6.72;2.88;;;;;;;;;;5140990;27;20069;-68
2023/01/07 12:54:08;;;;;;;5.80;2.75;;;;;;;;;;5151653;27;20424;-66
2023/01/07 12:56:42;;;;;;;7.25;2.63;;;;;;;;;;5152297;27;20114;-67
2023/01/07 12:59:40;;;;;;;6.38;2.80;;;;;;;;;;5152189;27;20385;-68
2023/01/07 13:02:31;;;;;;;6.10;2.60;;;;;;;;;;5140063;27;20636;-69
2023/01/07 13:05:19;;;;;;;7.88;3.00;;;;;;;;;;5152082;27;20031;-67
2023/01/07 13:08:01;;;;;;;6.10;2.65;;;;;;;;;;5151945;27;20023;-67
2023/01/07 13:10:35;;;;;;;6.03;3.10;;;;;;;;;;5151945;27;20106;-68
2023/01/07 13:13:05;;;;;;;6.07;2.80;;;;;;;;;;5152112;27;20027;-67
2023/01/07 13:15:34;;;;;;;6.07;2.60;;;;;;;;;;5152190;27;20027;-67
2023/01/07 13:18:17;;;;;;;6.03;2.58;;;;;;;;;;5152219;27;20067;-67
2023/01/07 13:21:15;;;;;;;7.43;3.20;;;;;;;;;;5151883;27;20046;-66
2023/01/07 13:24:06;;;;;;;5.95;2.70;;;;;;;;;;5147170;27;20598;-67
2023/01/07 13:26:56;;;;;;;5.82;2.80;;;;;;;;;;5152114;27;20027;-68
2023/01/07 13:29:39;;;;;;;6.20;2.93;;;;;;;;;;5150503;27;20079;-68
2023/01/07 13:32:24;;;;;;;7.97;2.92;;;;;;;;;;5151929;27;20171;-68
2023/01/07 13:35:07;;;;;;;7.35;2.95;;;;;;;;;;5151824;27;20031;-67
2023/01/07 13:37:47;;;;;;;7.47;3.00;;;;;;;;;;5151898;27;20657;-68
2023/01/07 13:40:58;;;;;;;7.10;2.87;;;;;;;;;;5151860;27;20596;-68
2023/01/07 13:43:47;;;;;;;6.63;3.10;;;;;;;;;;5127365;27;20272;-67
2023/01/07 13:46:18;;;;;;;8.15;3.00;;;;;;;;;;5151540;27;20070;-68
2023/01/07 13:48:52;;;;;;;6.43;2.60;;;;;;;;;;5151412;27;20367;-67
2023/01/07 13:51:31;;;;;;;8.35;3.00;;;;;;;;;;5151652;27;20023;-67
2023/01/07 13:53:57;;;;;;;8.82;2.85;;;;;;;;;;5151782;27;20026;-67
2023/01/07 13:56:22;;;;;;;6.93;2.60;;;;;;;;;;5151764;27;20018;-67
2023/01/07 13:58:52;;;;;;;8.77;2.88;;;;;;;;;;5151524;27;20364;-69
2023/01/07 14:01:22;;;;;;;7.35;2.90;;;;;;;;;;5151845;27;20038;-68
2023/01/07 14:03:57;;;;;;;5.40;2.72;;;;;;;;;;5151546;27;20027;-68
2023/01/07 14:06:26;;;;;;;6.57;2.88;;;;;;;;;;5155427;27;20523;-70
2023/01/07 14:08:54;;;;;;;6.47;2.90;;;;;;;;;;5155410;27;20041;-68
2023/01/07 14:11:37;;;;;;;5.82;2.80;;;;;;;;;;5155479;27;20083;-68
2023/01/07 14:14:24;;;;;;;8.68;2.90;;;;;;;;;;5155433;27;20474;-67
2023/01/07 14:17:10;;;;;;;7.53;3.10;;;;;;;;;;5155254;27;20085;-72
2023/01/07 14:19:53;;;;;;;6.85;2.80;;;;;;;;;;5154875;27;20023;-68
2023/01/07 14:22:30;;;;;;;5.05;2.53;;;;;;;;;;5155248;27;20023;-69
2023/01/07 14:25:17;;;;;;;5.28;2.67;;;;;;;;;;5155010;27;20034;-68
2023/01/07 14:28:27;;;;;;;6.72;2.50;;;;;;;;;;5155111;27;20034;-67
2023/01/07 14:30:53;;;;;;;6.85;2.50;;;;;;;;;;5124917;27;20481;-69
2023/01/07 14:33:20;;;;;;;7.07;2.50;;;;;;;;;;5153550;27;20069;-70
2023/01/07 14:36:21;;;;;;;6.95;2.58;;;;;;;;;;5154966;27;20030;-68
2023/01/07 14:38:55;;;;;;;;;;;;;;;;;;5090932;28;20360;-73
2023/01/07 14:41:22;;;;;;;8.68;2.58;;;;;;;;;;5144877;27;20285;-68
2023/01/07 14:44:01;;;;;;;6.57;2.75;;;;;;;;;;5154626;27;20019;-70
2023/01/07 14:46:26;;;;;;;5.45;2.55;;;;;;;;;;5154667;27;20038;-68
2023/01/07 14:49:01;;;;;;;8.98;2.80;;;;;;;;;;5154388;27;20446;-68
2023/01/07 14:51:45;;;;;;;8.15;2.67;;;;;;;;;;5154575;27;20030;-68
2023/01/07 14:54:26;;;;;;;6.40;2.90;;;;;;;;;;5155255;27;20430;-69
2023/01/07 14:57:29;;;;;;;5.38;2.90;;;;;;;;;;5154786;27;20050;-70
2023/01/07 15:00:20;;;;;;;7.13;2.78;;;;;;;;;;5162894;27;20018;-71
2023/01/07 15:03:24;;;;;;;6.25;2.55;;;;;;;;;;5156536;27;20043;-68
2023/01/07 15:06:04;;;;;;;7.10;3.13;;;;;;;;;;5154565;27;20026;-69